X  Fermer Données météorologiques d'aviation de Metar        LGTS Thessaloniki Macedonia International
Température
17°C Température
10°C Point de rosée
63% Humidité



Vent
4 M/S
8 MPH
13 KM/H
7 KTS



140°
SE
Conditions actuelles

Partly Cloudy Partiellement nuageux
Pression 1010 (hPa) - 29.82 (inHg)
Visibilité 6 (mile) - 10 (km)
Aéroport
Code de l'aéroport LGTS

Emplacement: Thessaloniki Macedonia International
Distance: 85 (km)

Metar:
METAR LGTS 261450Z 14007KT 9999 SCT030 17/10 Q1010 NOSIG

Temps: 26-02-2024 16:50 EET